CheckWX is a tool to help pilots better visualize weather data.  It is not intended as a substitute for an official pre-flight weather briefing.

13:40:47 UTC

ENOL METAR
Ørland Airport
Ørland, Norway
Current

21 mins ago

ENOL 201320Z 35009KT 9999 FEW025 SCT200 22/15 Q1009 NOSIG
Observed
Jul-20 @ 13:20 UTC
Wind
  • 350° at 9 KTS
Visibility
10,000+ meters
Flight Rules
VFR
Cloud Levels
  • Few at 2,500' AGL
  • Scattered at 20,000' AGL
Temperature
22°C / 72°F
Dewpoint
15°C / 59°F
Humidity
65%
Altimeter
29.79" Hg
Pressure
1008.92 hPa
Previous

51 mins ago

ENOL 201250Z 34010KT 9999 FEW025 SCT200 22/15 Q1009 NOSIG
Observed
Jul-20 @ 12:50 UTC
Wind
  • 340° at 10 KTS
Visibility
10,000+ meters
Flight Rules
VFR
Cloud Levels
  • Few at 2,500' AGL
  • Scattered at 20,000' AGL
Temperature
22°C / 72°F
Dewpoint
15°C / 59°F
Humidity
65%
Altimeter
29.79" Hg
Pressure
1008.92 hPa
Previous

1 hour ago

ENOL 201220Z 35009KT 9999 FEW025 SCT180 22/15 Q1010 NOSIG
Observed
Jul-20 @ 12:20 UTC
Wind
  • 350° at 9 KTS
Visibility
10,000+ meters
Flight Rules
VFR
Cloud Levels
  • Few at 2,500' AGL
  • Scattered at 18,000' AGL
Temperature
22°C / 72°F
Dewpoint
15°C / 59°F
Humidity
65%
Altimeter
29.82" Hg
Pressure
1009.92 hPa